Glen Haven, Wisconsin
Current Conditions -  °F | °C
As of 6:15 AM on Thursday 29 Jan 2015 (Local Time) from KPDC Reporting Station
Overcast Overcast  
Wind Chill: 24°   Ceiling: 1800
Heat Index: 33°   Visibility: 7mi
Dew Point: 27°   Wind: 13mph
Humidity: 79%   Direction: 310°NW
Pressure: 29.92"   Gusts: NA
Location:  42.83°N, 91.07°W
Report Text: KPDC 291215Z AUTO 31011KT 7SM OVC018 01/M03 A2992 RMK AO2 T00051028
Loading
Personal Weather Stations






























Interactive Weather Map New forecast layout! Learn more

10-Day Weather Forecast

Advertisements
Track Severe Weather on mobile